Port Colborne, Canada
Current Conditions -  °F | °C
As of 7:01 AM on Wednesday 26 Nov 2014 (Local Time) from KIAG Reporting Station
Broken Clouds Broken Clouds  
Wind Chill: -4°   Ceiling: 3600
Heat Index: -1°   Visibility: 10mi
Dew Point: -4°   Wind: 5mph
Humidity: 82%   Direction: 70°ENE
Pressure: 30.16"   Gusts: NA
Location:  42.89°N, 79.25°W
Report Text: KIAG 261201Z 07004KT 10SM BKN036 BKN100 BKN220 M01/M04 A3016 RMK AO2 T10111039
Loading
Personal Weather Stations






























Interactive Weather Map New forecast layout! Learn more

10-Day Weather Forecast

Advertisements
Track Severe Weather on mobile